createdAt,value
2023-01-17T00:01:09.995Z,16.10
2023-01-17T00:04:53.202Z,16.40
2023-01-17T00:08:35.930Z,17.20
2023-01-17T00:12:20.731Z,16.30
2023-01-17T00:16:04.214Z,16.40
2023-01-17T00:19:47.517Z,18.00
2023-01-17T00:23:30.678Z,18.30
2023-01-17T00:27:13.863Z,18.90
2023-01-17T00:30:38.484Z,17.40
2023-01-17T00:34:02.505Z,19.60
2023-01-17T00:37:26.977Z,19.00
2023-01-17T00:40:51.393Z,19.70
2023-01-17T00:44:34.487Z,21.60
2023-01-17T00:48:17.835Z,19.50
2023-01-17T00:52:01.076Z,23.00
2023-01-17T00:55:44.322Z,19.90
2023-01-17T00:59:27.403Z,23.60
2023-01-17T01:03:10.616Z,20.10
2023-01-17T01:06:53.593Z,19.80
2023-01-17T01:10:36.385Z,19.50
2023-01-17T01:14:19.414Z,19.20
2023-01-17T01:18:02.826Z,19.90
2023-01-17T01:21:46.099Z,21.20
2023-01-17T01:25:29.315Z,19.10
2023-01-17T01:29:12.937Z,18.10
2023-01-17T01:32:55.790Z,18.10
2023-01-17T01:36:40.749Z,19.20
2023-01-17T01:40:25.584Z,20.20
2023-01-17T01:44:21.011Z,21.30
2023-01-17T01:48:14.531Z,20.50
2023-01-17T01:52:02.608Z,19.80
2023-01-17T01:55:38.638Z,21.10
2023-01-17T01:59:23.470Z,22.30
2023-01-17T02:03:08.418Z,22.40
2023-01-17T02:06:49.977Z,19.80
2023-01-17T02:10:34.767Z,21.50
2023-01-17T02:14:19.441Z,21.90
2023-01-17T02:18:09.972Z,20.10
2023-01-17T02:22:12.605Z,18.30
2023-01-17T02:26:12.137Z,22.30
2023-01-17T02:30:02.746Z,19.50
2023-01-17T02:33:50.210Z,19.20
2023-01-17T02:37:37.668Z,19.40
2023-01-17T02:41:12.209Z,19.90
2023-01-17T02:44:45.846Z,19.40
2023-01-17T02:48:30.662Z,20.70
2023-01-17T02:52:27.188Z,20.20
2023-01-17T02:56:12.137Z,15.50
2023-01-17T03:00:11.831Z,17.40
2023-01-17T03:04:02.116Z,21.10
2023-01-17T03:07:49.721Z,20.30
2023-01-17T03:11:34.441Z,19.10
2023-01-17T03:15:19.091Z,17.50
2023-01-17T03:19:03.942Z,16.80
2023-01-17T03:22:48.699Z,17.40
2023-01-17T03:26:33.671Z,18.40
2023-01-17T03:30:18.497Z,17.70
2023-01-17T03:34:04.901Z,17.00
2023-01-17T03:37:51.216Z,16.80
2023-01-17T03:41:35.786Z,17.60
2023-01-17T03:45:20.697Z,14.80
2023-01-17T03:49:05.407Z,14.80
2023-01-17T03:52:50.334Z,13.60
2023-01-17T03:56:27.905Z,14.50
2023-01-17T04:00:13.060Z,15.00
2023-01-17T04:03:58.010Z,13.50
2023-01-17T04:07:17.628Z,13.10
2023-01-17T04:11:02.293Z,14.60
2023-01-17T04:14:46.919Z,14.30
2023-01-17T04:18:32.569Z,14.20
2023-01-17T04:22:18.623Z,12.90
2023-01-17T04:26:03.378Z,15.10
2023-01-17T04:29:48.061Z,14.20
2023-01-17T04:33:32.773Z,13.80
2023-01-17T04:37:17.393Z,12.80
2023-01-17T04:40:55.508Z,13.20
2023-01-17T04:44:40.294Z,12.70
2023-01-17T04:48:02.308Z,14.20
2023-01-17T04:51:47.679Z,12.80
2023-01-17T04:55:32.319Z,14.60
2023-01-17T04:59:17.080Z,14.50
2023-01-17T05:03:01.908Z,12.80
2023-01-17T05:06:46.806Z,14.50
2023-01-17T05:10:20.422Z,12.50
2023-01-17T05:13:58.103Z,11.80
2023-01-17T05:17:58.013Z,13.50
2023-01-17T05:21:42.791Z,13.00
2023-01-17T05:25:26.430Z,15.40
2023-01-17T05:29:11.190Z,14.70
2023-01-17T05:32:56.046Z,15.60
2023-01-17T05:36:29.392Z,16.70
2023-01-17T05:40:14.290Z,13.00
2023-01-17T05:43:59.727Z,14.50
2023-01-17T05:47:44.325Z,14.20
2023-01-17T05:51:29.152Z,14.60
2023-01-17T05:55:13.950Z,14.60
2023-01-17T05:58:58.681Z,16.00
2023-01-17T06:02:43.557Z,15.70
2023-01-17T06:06:21.714Z,14.70
2023-01-17T06:09:49.676Z,19.10
2023-01-17T06:13:46.435Z,15.20
2023-01-17T06:17:31.196Z,15.70
2023-01-17T06:21:15.879Z,14.50
2023-01-17T06:25:00.714Z,15.30
2023-01-17T06:28:45.454Z,13.30
2023-01-17T06:32:30.254Z,14.50
2023-01-17T06:36:07.984Z,16.00
2023-01-17T06:39:46.072Z,14.00
2023-01-17T06:43:31.199Z,14.00
2023-01-17T06:47:16.448Z,14.00
2023-01-17T06:51:01.549Z,15.40
2023-01-17T06:54:47.701Z,16.40
2023-01-17T06:58:32.467Z,15.20
2023-01-17T07:02:18.494Z,16.10
2023-01-17T07:06:03.264Z,14.30
2023-01-17T07:09:47.986Z,16.00
2023-01-17T07:13:35.449Z,15.10
2023-01-17T07:17:18.429Z,14.60
2023-01-17T07:21:03.182Z,15.40
2023-01-17T07:24:46.804Z,17.60
2023-01-17T07:28:31.511Z,15.90
2023-01-17T07:32:16.228Z,16.90
2023-01-17T07:36:00.887Z,16.50
2023-01-17T07:39:46.418Z,21.20
2023-01-17T07:43:36.026Z,16.50
2023-01-17T07:47:21.810Z,17.60
2023-01-17T07:51:07.086Z,18.60
2023-01-17T07:54:51.988Z,17.40
2023-01-17T07:58:29.126Z,13.90
2023-01-17T08:02:14.008Z,17.10
2023-01-17T08:05:57.899Z,16.40
2023-01-17T08:09:41.461Z,18.30
2023-01-17T08:13:28.431Z,18.30
2023-01-17T08:17:12.559Z,16.70
2023-01-17T08:20:56.119Z,17.80
2023-01-17T08:24:39.712Z,18.60
2023-01-17T08:28:13.487Z,15.50
2023-01-17T08:31:59.115Z,17.70
2023-01-17T08:35:44.027Z,15.60
2023-01-17T08:39:28.764Z,14.80
2023-01-17T08:43:13.775Z,13.30
2023-01-17T08:46:58.612Z,15.40
2023-01-17T08:50:43.493Z,15.60
2023-01-17T08:54:28.455Z,13.80
2023-01-17T08:58:13.216Z,15.40
2023-01-17T09:02:01.192Z,16.60
2023-01-17T09:05:46.353Z,13.30
2023-01-17T09:09:33.152Z,14.10
2023-01-17T09:13:18.399Z,16.10
2023-01-17T09:16:55.907Z,15.00
2023-01-17T09:20:29.603Z,15.40
2023-01-17T09:24:14.361Z,14.00
2023-01-17T09:27:37.483Z,16.40
2023-01-17T09:31:22.281Z,14.60
2023-01-17T09:35:00.041Z,14.40
2023-01-17T09:38:44.948Z,16.00
2023-01-17T09:42:29.788Z,16.20
2023-01-17T09:46:14.514Z,18.00
2023-01-17T09:50:11.122Z,17.30
2023-01-17T09:53:55.863Z,17.00
2023-01-17T09:57:44.076Z,17.50
2023-01-17T10:01:37.937Z,17.70
2023-01-17T10:05:31.422Z,16.10
2023-01-17T10:09:43.250Z,19.30
2023-01-17T10:13:37.411Z,17.50
2023-01-17T10:17:28.032Z,19.20
2023-01-17T10:21:18.570Z,18.90
2023-01-17T10:25:11.923Z,19.00
2023-01-17T10:28:50.752Z,17.70
2023-01-17T10:32:41.130Z,19.40
2023-01-17T10:36:28.670Z,17.20
2023-01-17T10:40:04.238Z,16.00
2023-01-17T10:44:00.708Z,17.70
2023-01-17T10:47:51.058Z,16.80
2023-01-17T10:51:28.422Z,15.60
2023-01-17T10:55:11.221Z,15.20
2023-01-17T10:58:55.995Z,14.00
2023-01-17T11:02:41.865Z,12.80
2023-01-17T11:06:28.542Z,15.10
2023-01-17T11:10:13.305Z,13.80
2023-01-17T11:14:03.605Z,13.20
2023-01-17T11:18:00.163Z,15.50
2023-01-17T11:21:47.665Z,14.70
2023-01-17T11:25:32.300Z,12.70
2023-01-17T11:29:19.839Z,14.40
2023-01-17T11:33:31.744Z,17.00
2023-01-17T11:37:04.763Z,15.90
2023-01-17T11:40:50.566Z,16.60
2023-01-17T11:44:35.348Z,16.00
2023-01-17T11:48:20.186Z,13.40
2023-01-17T11:52:07.725Z,14.60
2023-01-17T11:55:52.527Z,13.80
2023-01-17T11:59:55.081Z,14.60
2023-01-17T12:03:45.217Z,14.30
2023-01-17T12:07:32.459Z,14.70
2023-01-17T12:11:18.527Z,13.90
2023-01-17T12:15:03.249Z,13.30
2023-01-17T12:19:01.059Z,12.70
2023-01-17T12:23:09.625Z,15.30
2023-01-17T12:27:03.384Z,14.90
2023-01-17T12:30:51.501Z,14.20
2023-01-17T12:34:40.136Z,16.00
2023-01-17T12:38:32.518Z,16.90
2023-01-17T12:42:16.280Z,15.40
2023-01-17T12:46:06.708Z,16.40
2023-01-17T12:49:54.421Z,14.00
2023-01-17T12:53:39.273Z,16.70
2023-01-17T12:57:26.967Z,14.60
2023-01-17T13:01:14.762Z,16.00
2023-01-17T13:04:59.616Z,15.30
2023-01-17T13:08:43.071Z,15.70
2023-01-17T13:12:27.802Z,15.80
2023-01-17T13:16:15.754Z,13.90
2023-01-17T13:19:41.750Z,15.40
2023-01-17T13:23:26.509Z,15.20
2023-01-17T13:27:14.101Z,14.40
2023-01-17T13:30:54.278Z,13.70
2023-01-17T13:34:42.359Z,13.30
2023-01-17T13:38:31.147Z,14.70
2023-01-17T13:42:23.642Z,14.30
2023-01-17T13:46:08.461Z,13.70
2023-01-17T13:49:56.845Z,14.40
2023-01-17T13:53:41.368Z,14.90
2023-01-17T13:57:29.260Z,14.20
2023-01-17T14:01:16.185Z,12.80
2023-01-17T14:05:03.991Z,14.30
2023-01-17T14:08:54.417Z,13.10
2023-01-17T14:12:40.480Z,14.90
2023-01-17T14:16:28.137Z,13.70
2023-01-17T14:20:05.509Z,13.40
2023-01-17T14:24:02.031Z,13.90
2023-01-17T14:27:49.557Z,12.80
2023-01-17T14:31:34.388Z,13.70
2023-01-17T14:35:19.081Z,11.40
2023-01-17T14:39:04.342Z,15.60
2023-01-17T14:42:50.968Z,14.60
2023-01-17T14:46:47.618Z,14.90
2023-01-17T14:50:20.814Z,16.50
2023-01-17T14:54:08.651Z,16.90
2023-01-17T14:57:56.024Z,17.30
2023-01-17T15:01:41.134Z,18.60
2023-01-17T15:05:29.027Z,19.70
2023-01-17T15:09:16.643Z,18.20
2023-01-17T15:13:01.516Z,17.70
2023-01-17T15:16:46.191Z,17.10
2023-01-17T15:20:31.257Z,21.20
2023-01-17T15:24:17.304Z,22.20
2023-01-17T15:27:54.761Z,21.00
2023-01-17T15:31:48.630Z,22.30
2023-01-17T15:35:36.205Z,27.20
2023-01-17T15:39:21.392Z,25.40
2023-01-17T15:43:06.659Z,26.00
2023-01-17T15:47:12.518Z,29.30
2023-01-17T15:51:03.245Z,27.90
2023-01-17T15:58:16.649Z,25.10
2023-01-17T16:02:02.528Z,25.00
2023-01-17T16:05:32.287Z,20.90
2023-01-17T16:09:16.903Z,17.90
2023-01-17T16:13:02.738Z,21.20
2023-01-17T16:16:50.532Z,19.00
2023-01-17T16:20:36.515Z,21.10
2023-01-17T16:24:21.055Z,21.70
2023-01-17T16:28:05.947Z,26.80
2023-01-17T16:31:50.693Z,28.50
2023-01-17T16:35:35.291Z,24.50
2023-01-17T16:39:21.208Z,26.30
2023-01-17T16:43:07.347Z,27.80
2023-01-17T16:46:52.424Z,32.20
2023-01-17T16:50:37.132Z,32.20
2023-01-17T16:54:21.907Z,31.40
2023-01-17T16:58:07.081Z,36.10
2023-01-17T17:01:54.292Z,37.30
2023-01-17T17:05:33.285Z,43.40
2023-01-17T17:09:06.771Z,45.80
2023-01-17T17:12:52.860Z,45.80
2023-01-17T17:16:37.736Z,53.90
2023-01-17T17:20:25.098Z,52.70
2023-01-17T17:24:03.120Z,54.50
2023-01-17T17:27:47.962Z,52.00
2023-01-17T17:31:43.094Z,56.90
2023-01-17T17:35:28.119Z,59.70
2023-01-17T17:39:12.968Z,55.80
2023-01-17T17:42:58.714Z,55.70
2023-01-17T17:46:43.635Z,52.00
2023-01-17T17:50:29.022Z,54.10
2023-01-17T17:54:14.560Z,52.70
2023-01-17T17:58:00.869Z,47.00
2023-01-17T18:01:34.866Z,44.40
2023-01-17T18:05:19.784Z,42.80
2023-01-17T18:09:04.649Z,41.20
2023-01-17T18:12:49.326Z,38.10
2023-01-17T18:16:43.155Z,35.70
2023-01-17T18:20:27.771Z,35.80
2023-01-17T18:24:06.698Z,33.70
2023-01-17T18:27:56.287Z,31.40
2023-01-17T18:31:44.661Z,33.10
2023-01-17T18:35:29.305Z,30.20
2023-01-17T18:39:16.919Z,33.00
2023-01-17T18:43:02.247Z,28.90
2023-01-17T18:46:47.001Z,26.90
2023-01-17T18:50:31.775Z,28.80
2023-01-17T18:54:18.110Z,32.70
2023-01-17T18:58:04.091Z,34.40
2023-01-17T19:01:55.080Z,31.60
2023-01-17T19:05:43.385Z,29.70
2023-01-17T19:09:18.690Z,28.70
2023-01-17T19:13:05.320Z,27.60
2023-01-17T19:16:41.782Z,33.30
2023-01-17T19:20:19.583Z,34.20
2023-01-17T19:24:04.565Z,33.20
2023-01-17T19:27:50.547Z,33.00
2023-01-17T19:31:41.761Z,37.70
2023-01-17T19:35:26.611Z,37.60
2023-01-17T19:39:11.554Z,36.80
2023-01-17T19:42:56.291Z,32.40
2023-01-17T19:46:42.116Z,36.60
2023-01-17T19:50:38.930Z,38.80
2023-01-17T19:54:24.376Z,32.90
2023-01-17T19:58:07.776Z,34.90
2023-01-17T20:01:53.594Z,38.30
2023-01-17T20:05:38.713Z,34.30
2023-01-17T20:09:00.613Z,41.50
2023-01-17T20:12:45.419Z,46.90
2023-01-17T20:16:29.023Z,39.10
2023-01-17T20:20:12.367Z,45.50
2023-01-17T20:23:58.058Z,41.20
2023-01-17T20:27:41.536Z,43.30
2023-01-17T20:31:27.720Z,45.10
2023-01-17T20:35:14.168Z,46.10
2023-01-17T20:39:04.974Z,44.00
2023-01-17T20:42:49.768Z,43.40
2023-01-17T20:46:34.561Z,43.40
2023-01-17T20:50:20.185Z,41.50
2023-01-17T20:54:05.399Z,43.00
2023-01-17T20:57:50.275Z,44.00
2023-01-17T21:01:35.201Z,40.40
2023-01-17T21:05:25.873Z,42.50
2023-01-17T21:09:14.587Z,41.50
2023-01-17T21:12:59.486Z,42.10
2023-01-17T21:16:44.191Z,42.80
2023-01-17T21:20:29.078Z,44.80
2023-01-17T21:24:06.635Z,46.40
2023-01-17T21:27:51.483Z,53.40
2023-01-17T21:31:45.393Z,58.90
2023-01-17T21:35:30.335Z,57.70
2023-01-17T21:39:14.969Z,54.60
2023-01-17T21:42:59.667Z,49.20
2023-01-17T21:46:44.460Z,51.70
2023-01-17T21:50:33.663Z,47.20
2023-01-17T21:54:00.847Z,49.60
2023-01-17T21:57:43.996Z,45.20
2023-01-17T22:01:31.852Z,43.70
2023-01-17T22:05:16.978Z,50.50
2023-01-17T22:09:01.886Z,45.30
2023-01-17T22:12:46.801Z,48.50
2023-01-17T22:16:38.673Z,47.50
2023-01-17T22:20:23.348Z,45.70
2023-01-17T22:24:11.131Z,46.40
2023-01-17T22:27:56.035Z,45.80
2023-01-17T22:31:48.065Z,44.90
2023-01-17T22:35:21.413Z,44.40
2023-01-17T22:39:06.078Z,43.70
2023-01-17T22:42:50.859Z,42.60
2023-01-17T22:46:41.631Z,41.10
2023-01-17T22:50:26.494Z,38.00
2023-01-17T22:54:12.966Z,38.00
2023-01-17T22:57:50.743Z,42.00
2023-01-17T23:01:35.863Z,47.50
2023-01-17T23:05:20.910Z,40.20
2023-01-17T23:09:06.705Z,39.10
2023-01-17T23:12:51.790Z,42.60
2023-01-17T23:16:34.827Z,42.10
2023-01-17T23:20:25.228Z,43.30
2023-01-17T23:27:33.842Z,43.10
2023-01-17T23:31:18.775Z,48.20
2023-01-17T23:35:03.091Z,43.20
2023-01-17T23:38:47.659Z,50.00
2023-01-17T23:42:30.768Z,49.30
2023-01-17T23:46:15.487Z,48.70
2023-01-17T23:50:00.187Z,47.90
2023-01-17T23:53:45.040Z,50.40
2023-01-17T23:57:29.936Z,52.00
